Ana Sayfa
METAR-TAF:

METAR-TAF

Havaalanları :

Grootfontein, Namibya

Enlem: 19-36S, Boylam: 018-07E, yükseklik: 1411 m

Güncel hava durumu gözlemi

Rapor saat 18:00 UTC de 1 saat ve 26 dakika önce yapıldı.
Rüzgar doğudan 4 kt
Sıcaklık 30°C
Nem 35%
Basınç 1020 hPa
Görüş mesafesi 10 km veya daha fazla
5000 ft yükseklikte az bulutlu, Kümülonimbus.

METAR: FYGF 151800Z 08004KT 9999 FEW050CB 30/13 Q1020

Saat: 21:26 (19:26 UTC)

Tahmin

Rapor saat 17:00 UTC de 2 saat ve 26 dakika önce yapıldı.
Ayın 15'si saat 18 UTC'den ayın 16'si saat 03 UTC'ye kadar geçerli Tahmin
Rüzgar doğudan 8 kt
Görüş mesafesi 10 km veya daha fazla
4500 ft yükseklikte az bulutlu, Kümülonimbus.
Dönüşüyor
ayın 15'si saat 19 UTC'den ayın 15'si saat 21 UTC'ye kadar

TAF: FYGF 151700Z 1518/1603 10008KT 9999 FEW045CB BECMG 1519/1521 NSC

4.000'den fazla havaalanı için hava durumu gözlemleri ve tahminleri (METAR ve TAF raporları).

Kullanılabilir istasyonlar harita üzerinde sarı ve kırmızı noktalarla gösterilir.

İstasyonun adını görmek için fareyi noktanın üzerinde gezdirin.

Sonrasında hava gözlem ve tahminlerini görmek için tıklayın.

Haritayı değiştirmek için: yaklaştırmak için siyah artı işaretli yeşil düğmeye ve uzaklaştırmak için de eksi işaretli düğmeye hızla tıklayın; bitişik haritalar için yeşil okları kullanın.


METAR-TAF: